sensor_id;sensor_type;location;lat;lon;timestamp;P1;durP1;ratioP1;P2;durP2;ratioP2
76131;SDS011;64877;50.994;13.650;2023-04-16T00:00:05;14.13;;;8.05;;
76131;SDS011;64877;50.994;13.650;2023-04-16T00:02:32;11.75;;;7.60;;
76131;SDS011;64877;50.994;13.650;2023-04-16T00:04:58;15.35;;;7.10;;
76131;SDS011;64877;50.994;13.650;2023-04-16T00:07:23;13.75;;;8.25;;
76131;SDS011;64877;50.994;13.650;2023-04-16T00:09:49;11.90;;;7.65;;
76131;SDS011;64877;50.994;13.650;2023-04-16T00:12:14;13.43;;;7.38;;
76131;SDS011;64877;50.994;13.650;2023-04-16T00:14:40;11.30;;;7.18;;
76131;SDS011;64877;50.994;13.650;2023-04-16T00:17:07;16.60;;;8.77;;
76131;SDS011;64877;50.994;13.650;2023-04-16T00:19:33;12.63;;;8.90;;
76131;SDS011;64877;50.994;13.650;2023-04-16T00:21:58;12.82;;;7.50;;
76131;SDS011;64877;50.994;13.650;2023-04-16T00:24:24;11.15;;;8.18;;
76131;SDS011;64877;50.994;13.650;2023-04-16T00:26:49;11.93;;;7.85;;
76131;SDS011;64877;50.994;13.650;2023-04-16T00:29:14;10.80;;;7.47;;
76131;SDS011;64877;50.994;13.650;2023-04-16T00:31:40;9.82;;;7.28;;
76131;SDS011;64877;50.994;13.650;2023-04-16T00:34:05;11.00;;;7.30;;
76131;SDS011;64877;50.994;13.650;2023-04-16T00:36:30;11.90;;;6.95;;
76131;SDS011;64877;50.994;13.650;2023-04-16T00:38:56;12.75;;;8.15;;
76131;SDS011;64877;50.994;13.650;2023-04-16T00:41:21;13.82;;;7.97;;
76131;SDS011;64877;50.994;13.650;2023-04-16T00:43:47;13.80;;;8.63;;
76131;SDS011;64877;50.994;13.650;2023-04-16T00:46:13;12.82;;;7.95;;
76131;SDS011;64877;50.994;13.650;2023-04-16T00:48:40;13.25;;;8.32;;
76131;SDS011;64877;50.994;13.650;2023-04-16T00:51:08;14.07;;;8.07;;
76131;SDS011;64877;50.994;13.650;2023-04-16T00:53:33;12.32;;;8.25;;
76131;SDS011;64877;50.994;13.650;2023-04-16T00:56:00;10.80;;;8.13;;
76131;SDS011;64877;50.994;13.650;2023-04-16T01:00:52;13.95;;;7.95;;
76131;SDS011;64877;50.994;13.650;2023-04-16T01:03:18;11.95;;;8.20;;
76131;SDS011;64877;50.994;13.650;2023-04-16T01:05:43;13.57;;;8.38;;
76131;SDS011;64877;50.994;13.650;2023-04-16T01:08:16;12.55;;;7.80;;
76131;SDS011;64877;50.994;13.650;2023-04-16T01:10:42;11.25;;;7.43;;
76131;SDS011;64877;50.994;13.650;2023-04-16T01:13:08;15.02;;;8.70;;
76131;SDS011;64877;50.994;13.650;2023-04-16T01:15:34;13.23;;;8.43;;
76131;SDS011;64877;50.994;13.650;2023-04-16T01:17:59;13.38;;;8.73;;
76131;SDS011;64877;50.994;13.650;2023-04-16T01:20:25;15.20;;;9.63;;
76131;SDS011;64877;50.994;13.650;2023-04-16T01:22:50;14.13;;;8.35;;
76131;SDS011;64877;50.994;13.650;2023-04-16T01:25:15;15.32;;;9.35;;
76131;SDS011;64877;50.994;13.650;2023-04-16T01:27:41;17.67;;;9.45;;
76131;SDS011;64877;50.994;13.650;2023-04-16T01:30:07;12.10;;;8.63;;
76131;SDS011;64877;50.994;13.650;2023-04-16T01:32:32;13.85;;;8.80;;
76131;SDS011;64877;50.994;13.650;2023-04-16T01:34:58;15.88;;;9.30;;
76131;SDS011;64877;50.994;13.650;2023-04-16T01:37:23;16.38;;;9.70;;
76131;SDS011;64877;50.994;13.650;2023-04-16T01:39:48;15.60;;;8.95;;
76131;SDS011;64877;50.994;13.650;2023-04-16T01:42:14;13.68;;;8.68;;
76131;SDS011;64877;50.994;13.650;2023-04-16T01:44:39;16.98;;;9.35;;
76131;SDS011;64877;50.994;13.650;2023-04-16T01:47:05;11.70;;;8.25;;
76131;SDS011;64877;50.994;13.650;2023-04-16T01:49:30;14.43;;;8.82;;
76131;SDS011;64877;50.994;13.650;2023-04-16T01:51:55;15.40;;;8.85;;
76131;SDS011;64877;50.994;13.650;2023-04-16T01:54:21;15.80;;;9.23;;
76131;SDS011;64877;50.994;13.650;2023-04-16T01:56:46;14.65;;;9.07;;
76131;SDS011;64877;50.994;13.650;2023-04-16T01:59:12;14.25;;;9.38;;
76131;SDS011;64877;50.994;13.650;2023-04-16T02:01:37;14.45;;;9.57;;
76131;SDS011;64877;50.994;13.650;2023-04-16T02:04:03;12.60;;;8.82;;
76131;SDS011;64877;50.994;13.650;2023-04-16T02:06:29;14.15;;;8.73;;
76131;SDS011;64877;50.994;13.650;2023-04-16T02:08:55;15.32;;;9.15;;
76131;SDS011;64877;50.994;13.650;2023-04-16T02:11:20;14.43;;;9.05;;
76131;SDS011;64877;50.994;13.650;2023-04-16T02:13:46;13.10;;;8.18;;
76131;SDS011;64877;50.994;13.650;2023-04-16T02:16:11;12.20;;;8.40;;
76131;SDS011;64877;50.994;13.650;2023-04-16T02:18:36;13.38;;;8.57;;
76131;SDS011;64877;50.994;13.650;2023-04-16T02:21:02;11.05;;;7.95;;
76131;SDS011;64877;50.994;13.650;2023-04-16T02:23:27;12.63;;;8.48;;
76131;SDS011;64877;50.994;13.650;2023-04-16T02:25:53;12.90;;;8.98;;
76131;SDS011;64877;50.994;13.650;2023-04-16T02:28:18;12.20;;;8.00;;
76131;SDS011;64877;50.994;13.650;2023-04-16T02:30:44;13.88;;;8.45;;
76131;SDS011;64877;50.994;13.650;2023-04-16T02:33:10;13.20;;;8.40;;
76131;SDS011;64877;50.994;13.650;2023-04-16T02:35:36;14.27;;;8.65;;
76131;SDS011;64877;50.994;13.650;2023-04-16T02:38:03;12.70;;;8.70;;
76131;SDS011;64877;50.994;13.650;2023-04-16T02:40:29;11.93;;;8.38;;
76131;SDS011;64877;50.994;13.650;2023-04-16T02:42:55;12.10;;;8.07;;
76131;SDS011;64877;50.994;13.650;2023-04-16T02:45:22;14.75;;;8.63;;
76131;SDS011;64877;50.994;13.650;2023-04-16T02:47:48;13.73;;;9.57;;
76131;SDS011;64877;50.994;13.650;2023-04-16T02:50:15;12.43;;;8.55;;
76131;SDS011;64877;50.994;13.650;2023-04-16T02:52:41;13.02;;;8.68;;
76131;SDS011;64877;50.994;13.650;2023-04-16T02:55:07;15.05;;;9.73;;
76131;SDS011;64877;50.994;13.650;2023-04-16T02:57:33;14.05;;;8.88;;
76131;SDS011;64877;50.994;13.650;2023-04-16T02:59:59;13.43;;;8.90;;
76131;SDS011;64877;50.994;13.650;2023-04-16T03:02:24;13.38;;;8.52;;
76131;SDS011;64877;50.994;13.650;2023-04-16T03:04:51;12.02;;;7.63;;
76131;SDS011;64877;50.994;13.650;2023-04-16T03:07:16;13.07;;;8.77;;
76131;SDS011;64877;50.994;13.650;2023-04-16T03:09:43;12.60;;;8.63;;
76131;SDS011;64877;50.994;13.650;2023-04-16T03:12:09;12.88;;;8.60;;
76131;SDS011;64877;50.994;13.650;2023-04-16T03:14:34;11.52;;;8.50;;
76131;SDS011;64877;50.994;13.650;2023-04-16T03:17:00;15.02;;;8.43;;
76131;SDS011;64877;50.994;13.650;2023-04-16T03:19:25;12.98;;;8.88;;
76131;SDS011;64877;50.994;13.650;2023-04-16T03:21:51;12.50;;;8.07;;
76131;SDS011;64877;50.994;13.650;2023-04-16T03:24:16;12.02;;;8.05;;
76131;SDS011;64877;50.994;13.650;2023-04-16T03:26:42;13.88;;;8.43;;
76131;SDS011;64877;50.994;13.650;2023-04-16T03:29:07;14.43;;;9.05;;
76131;SDS011;64877;50.994;13.650;2023-04-16T03:31:32;13.55;;;9.43;;
76131;SDS011;64877;50.994;13.650;2023-04-16T03:33:58;13.27;;;8.27;;
76131;SDS011;64877;50.994;13.650;2023-04-16T03:36:23;12.13;;;8.48;;
76131;SDS011;64877;50.994;13.650;2023-04-16T03:38:50;12.50;;;7.93;;
76131;SDS011;64877;50.994;13.650;2023-04-16T03:41:15;12.75;;;7.93;;
76131;SDS011;64877;50.994;13.650;2023-04-16T03:43:41;13.70;;;8.82;;
76131;SDS011;64877;50.994;13.650;2023-04-16T03:46:06;12.50;;;8.10;;
76131;SDS011;64877;50.994;13.650;2023-04-16T03:48:31;12.10;;;8.18;;
76131;SDS011;64877;50.994;13.650;2023-04-16T03:50:57;13.18;;;9.00;;
76131;SDS011;64877;50.994;13.650;2023-04-16T03:53:23;12.05;;;8.48;;
76131;SDS011;64877;50.994;13.650;2023-04-16T03:55:49;12.95;;;8.35;;
76131;SDS011;64877;50.994;13.650;2023-04-16T03:58:15;11.95;;;8.38;;
76131;SDS011;64877;50.994;13.650;2023-04-16T04:00:41;11.63;;;8.15;;
76131;SDS011;64877;50.994;13.650;2023-04-16T04:03:07;13.27;;;7.78;;
76131;SDS011;64877;50.994;13.650;2023-04-16T04:05:36;11.73;;;8.43;;
76131;SDS011;64877;50.994;13.650;2023-04-16T04:08:03;12.25;;;8.02;;
76131;SDS011;64877;50.994;13.650;2023-04-16T04:10:30;13.02;;;8.32;;
76131;SDS011;64877;50.994;13.650;2023-04-16T04:15:22;12.87;;;8.07;;
76131;SDS011;64877;50.994;13.650;2023-04-16T04:17:47;12.15;;;8.15;;
76131;SDS011;64877;50.994;13.650;2023-04-16T04:20:12;10.52;;;7.43;;
76131;SDS011;64877;50.994;13.650;2023-04-16T04:22:38;11.93;;;8.18;;
76131;SDS011;64877;50.994;13.650;2023-04-16T04:25:03;11.85;;;8.48;;
76131;SDS011;64877;50.994;13.650;2023-04-16T04:27:29;12.35;;;8.27;;
76131;SDS011;64877;50.994;13.650;2023-04-16T04:29:55;11.65;;;7.40;;
76131;SDS011;64877;50.994;13.650;2023-04-16T04:32:20;10.55;;;7.45;;
76131;SDS011;64877;50.994;13.650;2023-04-16T04:34:46;13.18;;;8.10;;
76131;SDS011;64877;50.994;13.650;2023-04-16T04:37:11;11.07;;;7.55;;
76131;SDS011;64877;50.994;13.650;2023-04-16T04:39:36;11.80;;;7.65;;
76131;SDS011;64877;50.994;13.650;2023-04-16T04:42:02;12.40;;;7.95;;
76131;SDS011;64877;50.994;13.650;2023-04-16T04:44:27;13.00;;;8.35;;
76131;SDS011;64877;50.994;13.650;2023-04-16T04:46:52;12.63;;;8.23;;
76131;SDS011;64877;50.994;13.650;2023-04-16T04:49:18;12.05;;;8.10;;
76131;SDS011;64877;50.994;13.650;2023-04-16T04:51:43;12.15;;;8.73;;
76131;SDS011;64877;50.994;13.650;2023-04-16T04:54:09;14.40;;;9.45;;
76131;SDS011;64877;50.994;13.650;2023-04-16T04:56:34;12.82;;;8.07;;
76131;SDS011;64877;50.994;13.650;2023-04-16T04:58:59;13.63;;;8.88;;
76131;SDS011;64877;50.994;13.650;2023-04-16T05:01:25;17.13;;;8.10;;
76131;SDS011;64877;50.994;13.650;2023-04-16T05:03:50;14.73;;;8.77;;
76131;SDS011;64877;50.994;13.650;2023-04-16T05:06:15;12.43;;;9.30;;
76131;SDS011;64877;50.994;13.650;2023-04-16T05:08:41;14.95;;;8.70;;
76131;SDS011;64877;50.994;13.650;2023-04-16T05:11:06;12.60;;;8.13;;
76131;SDS011;64877;50.994;13.650;2023-04-16T05:13:31;12.18;;;7.82;;
76131;SDS011;64877;50.994;13.650;2023-04-16T05:15:57;11.43;;;8.07;;
76131;SDS011;64877;50.994;13.650;2023-04-16T05:18:22;14.40;;;9.48;;
76131;SDS011;64877;50.994;13.650;2023-04-16T05:20:48;11.75;;;7.55;;
76131;SDS011;64877;50.994;13.650;2023-04-16T05:23:13;14.07;;;8.57;;
76131;SDS011;64877;50.994;13.650;2023-04-16T05:25:39;11.32;;;7.63;;
76131;SDS011;64877;50.994;13.650;2023-04-16T05:28:05;11.23;;;7.70;;
76131;SDS011;64877;50.994;13.650;2023-04-16T05:30:30;14.85;;;8.48;;
76131;SDS011;64877;50.994;13.650;2023-04-16T05:32:55;11.98;;;8.10;;
76131;SDS011;64877;50.994;13.650;2023-04-16T05:35:21;11.68;;;7.88;;
76131;SDS011;64877;50.994;13.650;2023-04-16T05:37:46;11.68;;;8.00;;
76131;SDS011;64877;50.994;13.650;2023-04-16T05:40:12;14.57;;;8.68;;
76131;SDS011;64877;50.994;13.650;2023-04-16T05:42:37;11.07;;;7.97;;
76131;SDS011;64877;50.994;13.650;2023-04-16T05:45:03;11.50;;;7.85;;
76131;SDS011;64877;50.994;13.650;2023-04-16T05:47:29;15.98;;;9.80;;
76131;SDS011;64877;50.994;13.650;2023-04-16T05:49:54;12.80;;;9.40;;
76131;SDS011;64877;50.994;13.650;2023-04-16T05:52:20;13.15;;;9.07;;
76131;SDS011;64877;50.994;13.650;2023-04-16T05:54:45;14.20;;;9.25;;
76131;SDS011;64877;50.994;13.650;2023-04-16T05:57:12;14.48;;;10.40;;
76131;SDS011;64877;50.994;13.650;2023-04-16T05:59:37;12.55;;;8.98;;
76131;SDS011;64877;50.994;13.650;2023-04-16T06:02:03;12.00;;;8.85;;
76131;SDS011;64877;50.994;13.650;2023-04-16T06:04:28;12.27;;;8.65;;
76131;SDS011;64877;50.994;13.650;2023-04-16T06:06:54;12.60;;;8.23;;
76131;SDS011;64877;50.994;13.650;2023-04-16T06:09:20;12.75;;;8.27;;
76131;SDS011;64877;50.994;13.650;2023-04-16T06:11:45;11.95;;;8.45;;
76131;SDS011;64877;50.994;13.650;2023-04-16T06:14:11;11.80;;;8.18;;
76131;SDS011;64877;50.994;13.650;2023-04-16T06:16:36;11.82;;;7.82;;
76131;SDS011;64877;50.994;13.650;2023-04-16T06:19:02;13.45;;;8.15;;
76131;SDS011;64877;50.994;13.650;2023-04-16T06:21:27;12.25;;;8.27;;
76131;SDS011;64877;50.994;13.650;2023-04-16T06:23:53;10.93;;;7.75;;
76131;SDS011;64877;50.994;13.650;2023-04-16T06:26:19;11.95;;;7.63;;
76131;SDS011;64877;50.994;13.650;2023-04-16T06:28:45;11.82;;;8.27;;
76131;SDS011;64877;50.994;13.650;2023-04-16T06:31:10;12.27;;;8.60;;
76131;SDS011;64877;50.994;13.650;2023-04-16T06:33:35;11.32;;;8.25;;
76131;SDS011;64877;50.994;13.650;2023-04-16T06:36:01;9.05;;;6.80;;
76131;SDS011;64877;50.994;13.650;2023-04-16T06:38:26;8.48;;;6.15;;
76131;SDS011;64877;50.994;13.650;2023-04-16T06:40:51;8.15;;;6.53;;
76131;SDS011;64877;50.994;13.650;2023-04-16T06:43:17;7.95;;;5.72;;
76131;SDS011;64877;50.994;13.650;2023-04-16T06:45:42;9.93;;;6.47;;
76131;SDS011;64877;50.994;13.650;2023-04-16T06:48:08;10.27;;;7.25;;
76131;SDS011;64877;50.994;13.650;2023-04-16T06:50:33;11.05;;;7.50;;
76131;SDS011;64877;50.994;13.650;2023-04-16T06:52:58;10.40;;;7.85;;
76131;SDS011;64877;50.994;13.650;2023-04-16T06:55:24;12.32;;;7.68;;
76131;SDS011;64877;50.994;13.650;2023-04-16T06:57:50;9.43;;;7.07;;
76131;SDS011;64877;50.994;13.650;2023-04-16T07:00:15;8.88;;;7.10;;
76131;SDS011;64877;50.994;13.650;2023-04-16T07:02:41;10.70;;;7.50;;
76131;SDS011;64877;50.994;13.650;2023-04-16T07:05:06;9.10;;;6.65;;
76131;SDS011;64877;50.994;13.650;2023-04-16T07:07:32;8.80;;;6.10;;
76131;SDS011;64877;50.994;13.650;2023-04-16T07:09:58;11.15;;;7.07;;
76131;SDS011;64877;50.994;13.650;2023-04-16T07:12:23;8.38;;;6.63;;
76131;SDS011;64877;50.994;13.650;2023-04-16T07:14:49;8.68;;;6.55;;
76131;SDS011;64877;50.994;13.650;2023-04-16T07:17:15;8.65;;;6.28;;
76131;SDS011;64877;50.994;13.650;2023-04-16T07:19:40;12.73;;;6.95;;
76131;SDS011;64877;50.994;13.650;2023-04-16T07:22:05;10.40;;;7.03;;
76131;SDS011;64877;50.994;13.650;2023-04-16T07:24:31;10.82;;;7.30;;
76131;SDS011;64877;50.994;13.650;2023-04-16T07:26:56;8.77;;;6.75;;
76131;SDS011;64877;50.994;13.650;2023-04-16T07:29:22;10.70;;;7.72;;
76131;SDS011;64877;50.994;13.650;2023-04-16T07:31:47;10.70;;;7.53;;
76131;SDS011;64877;50.994;13.650;2023-04-16T07:34:13;11.35;;;7.80;;
76131;SDS011;64877;50.994;13.650;2023-04-16T07:36:38;12.18;;;8.88;;
76131;SDS011;64877;50.994;13.650;2023-04-16T07:39:04;11.50;;;8.60;;
76131;SDS011;64877;50.994;13.650;2023-04-16T07:41:32;11.75;;;8.48;;
76131;SDS011;64877;50.994;13.650;2023-04-16T07:43:58;10.90;;;8.10;;
76131;SDS011;64877;50.994;13.650;2023-04-16T07:46:23;12.65;;;8.65;;
76131;SDS011;64877;50.994;13.650;2023-04-16T07:48:48;13.25;;;8.35;;
76131;SDS011;64877;50.994;13.650;2023-04-16T07:51:14;12.35;;;8.73;;
76131;SDS011;64877;50.994;13.650;2023-04-16T07:53:39;14.05;;;9.02;;
76131;SDS011;64877;50.994;13.650;2023-04-16T07:56:06;12.02;;;8.88;;
76131;SDS011;64877;50.994;13.650;2023-04-16T07:58:31;11.57;;;8.70;;
76131;SDS011;64877;50.994;13.650;2023-04-16T08:00:57;13.38;;;8.85;;
76131;SDS011;64877;50.994;13.650;2023-04-16T08:03:23;11.85;;;8.50;;
76131;SDS011;64877;50.994;13.650;2023-04-16T08:05:48;11.20;;;7.75;;
76131;SDS011;64877;50.994;13.650;2023-04-16T08:08:13;11.60;;;8.65;;
76131;SDS011;64877;50.994;13.650;2023-04-16T08:10:39;12.02;;;8.00;;
76131;SDS011;64877;50.994;13.650;2023-04-16T08:13:05;11.13;;;7.60;;
76131;SDS011;64877;50.994;13.650;2023-04-16T08:15:30;11.25;;;7.85;;
76131;SDS011;64877;50.994;13.650;2023-04-16T08:17:55;8.82;;;7.15;;
76131;SDS011;64877;50.994;13.650;2023-04-16T08:20:21;9.20;;;6.38;;
76131;SDS011;64877;50.994;13.650;2023-04-16T08:22:47;11.02;;;7.38;;
76131;SDS011;64877;50.994;13.650;2023-04-16T08:25:12;9.45;;;6.70;;
76131;SDS011;64877;50.994;13.650;2023-04-16T08:27:38;9.55;;;6.45;;
76131;SDS011;64877;50.994;13.650;2023-04-16T08:30:04;8.60;;;5.80;;
76131;SDS011;64877;50.994;13.650;2023-04-16T08:32:30;8.90;;;5.57;;
76131;SDS011;64877;50.994;13.650;2023-04-16T08:34:56;9.90;;;6.85;;
76131;SDS011;64877;50.994;13.650;2023-04-16T08:37:21;10.15;;;7.45;;
76131;SDS011;64877;50.994;13.650;2023-04-16T08:39:47;9.50;;;6.90;;
76131;SDS011;64877;50.994;13.650;2023-04-16T08:42:55;9.35;;;7.05;;
76131;SDS011;64877;50.994;13.650;2023-04-16T08:47:40;10.45;;;7.85;;
76131;SDS011;64877;50.994;13.650;2023-04-16T08:50:14;10.13;;;7.65;;
76131;SDS011;64877;50.994;13.650;2023-04-16T08:52:52;10.32;;;7.68;;
76131;SDS011;64877;50.994;13.650;2023-04-16T08:55:21;8.88;;;6.47;;
76131;SDS011;64877;50.994;13.650;2023-04-16T08:57:51;9.85;;;6.57;;
76131;SDS011;64877;50.994;13.650;2023-04-16T09:00:21;8.70;;;5.75;;
76131;SDS011;64877;50.994;13.650;2023-04-16T09:02:48;8.43;;;6.05;;
76131;SDS011;64877;50.994;13.650;2023-04-16T09:05:15;10.15;;;6.10;;
76131;SDS011;64877;50.994;13.650;2023-04-16T09:07:45;7.85;;;5.05;;
76131;SDS011;64877;50.994;13.650;2023-04-16T09:10:11;8.23;;;5.30;;
76131;SDS011;64877;50.994;13.650;2023-04-16T09:12:40;7.32;;;4.60;;
76131;SDS011;64877;50.994;13.650;2023-04-16T09:15:08;6.68;;;4.85;;
76131;SDS011;64877;50.994;13.650;2023-04-16T09:17:34;7.57;;;5.35;;
76131;SDS011;64877;50.994;13.650;2023-04-16T09:20:00;10.00;;;5.95;;
76131;SDS011;64877;50.994;13.650;2023-04-16T09:22:26;9.50;;;6.05;;
76131;SDS011;64877;50.994;13.650;2023-04-16T09:24:51;9.48;;;6.97;;
76131;SDS011;64877;50.994;13.650;2023-04-16T09:27:17;8.45;;;6.35;;
76131;SDS011;64877;50.994;13.650;2023-04-16T09:29:42;9.75;;;6.60;;
76131;SDS011;64877;50.994;13.650;2023-04-16T09:32:09;9.43;;;6.93;;
76131;SDS011;64877;50.994;13.650;2023-04-16T09:34:52;8.07;;;6.68;;
76131;SDS011;64877;50.994;13.650;2023-04-16T09:37:21;8.45;;;6.47;;
76131;SDS011;64877;50.994;13.650;2023-04-16T09:39:54;10.93;;;7.28;;
76131;SDS011;64877;50.994;13.650;2023-04-16T09:42:30;10.15;;;7.72;;
76131;SDS011;64877;50.994;13.650;2023-04-16T09:44:57;9.57;;;6.80;;
76131;SDS011;64877;50.994;13.650;2023-04-16T09:47:24;11.45;;;7.72;;
76131;SDS011;64877;50.994;13.650;2023-04-16T09:49:51;11.05;;;7.78;;
76131;SDS011;64877;50.994;13.650;2023-04-16T09:52:17;7.85;;;6.32;;
76131;SDS011;64877;50.994;13.650;2023-04-16T09:54:47;8.07;;;5.93;;
76131;SDS011;64877;50.994;13.650;2023-04-16T09:57:23;8.05;;;6.13;;
76131;SDS011;64877;50.994;13.650;2023-04-16T09:59:53;11.05;;;6.78;;
76131;SDS011;64877;50.994;13.650;2023-04-16T10:02:25;10.35;;;6.72;;
76131;SDS011;64877;50.994;13.650;2023-04-16T10:04:52;10.50;;;6.05;;
76131;SDS011;64877;50.994;13.650;2023-04-16T10:07:18;10.82;;;6.30;;
76131;SDS011;64877;50.994;13.650;2023-04-16T10:09:45;8.77;;;5.70;;
76131;SDS011;64877;50.994;13.650;2023-04-16T10:12:12;9.57;;;6.18;;
76131;SDS011;64877;50.994;13.650;2023-04-16T10:14:38;8.13;;;6.05;;
76131;SDS011;64877;50.994;13.650;2023-04-16T10:17:04;8.70;;;6.20;;
76131;SDS011;64877;50.994;13.650;2023-04-16T10:19:30;8.57;;;5.65;;
76131;SDS011;64877;50.994;13.650;2023-04-16T10:21:56;10.02;;;6.50;;
76131;SDS011;64877;50.994;13.650;2023-04-16T10:24:23;8.07;;;5.82;;
76131;SDS011;64877;50.994;13.650;2023-04-16T10:26:50;9.00;;;6.32;;
76131;SDS011;64877;50.994;13.650;2023-04-16T10:29:17;8.80;;;6.18;;
76131;SDS011;64877;50.994;13.650;2023-04-16T10:31:44;8.10;;;5.68;;
76131;SDS011;64877;50.994;13.650;2023-04-16T10:34:11;6.65;;;5.18;;
76131;SDS011;64877;50.994;13.650;2023-04-16T10:36:38;7.72;;;4.95;;
76131;SDS011;64877;50.994;13.650;2023-04-16T10:39:10;6.63;;;4.95;;
76131;SDS011;64877;50.994;13.650;2023-04-16T10:41:37;7.45;;;5.38;;
76131;SDS011;64877;50.994;13.650;2023-04-16T10:44:03;6.78;;;4.85;;
76131;SDS011;64877;50.994;13.650;2023-04-16T10:46:40;6.30;;;4.90;;
76131;SDS011;64877;50.994;13.650;2023-04-16T10:49:16;5.45;;;4.13;;
76131;SDS011;64877;50.994;13.650;2023-04-16T10:52:26;6.60;;;5.00;;
76131;SDS011;64877;50.994;13.650;2023-04-16T10:54:35;6.60;;;4.20;;
76131;SDS011;64877;50.994;13.650;2023-04-16T10:57:05;8.38;;;5.57;;
76131;SDS011;64877;50.994;13.650;2023-04-16T10:59:33;7.30;;;5.05;;
76131;SDS011;64877;50.994;13.650;2023-04-16T11:02:00;9.88;;;5.40;;
76131;SDS011;64877;50.994;13.650;2023-04-16T11:04:36;8.00;;;5.35;;
76131;SDS011;64877;50.994;13.650;2023-04-16T11:09:44;8.80;;;5.47;;
76131;SDS011;64877;50.994;13.650;2023-04-16T11:12:21;7.78;;;5.00;;
76131;SDS011;64877;50.994;13.650;2023-04-16T11:14:52;6.57;;;5.03;;
76131;SDS011;64877;50.994;13.650;2023-04-16T11:19:45;7.15;;;4.38;;
76131;SDS011;64877;50.994;13.650;2023-04-16T11:22:12;5.63;;;4.28;;
76131;SDS011;64877;50.994;13.650;2023-04-16T11:24:39;7.18;;;4.63;;
76131;SDS011;64877;50.994;13.650;2023-04-16T11:27:05;6.75;;;4.70;;
76131;SDS011;64877;50.994;13.650;2023-04-16T11:29:31;5.90;;;4.18;;
76131;SDS011;64877;50.994;13.650;2023-04-16T11:31:56;5.47;;;4.05;;
76131;SDS011;64877;50.994;13.650;2023-04-16T11:34:22;8.23;;;4.80;;
76131;SDS011;64877;50.994;13.650;2023-04-16T11:36:49;4.78;;;3.50;;
76131;SDS011;64877;50.994;13.650;2023-04-16T11:39:15;6.40;;;4.10;;
76131;SDS011;64877;50.994;13.650;2023-04-16T11:41:42;4.75;;;3.38;;
76131;SDS011;64877;50.994;13.650;2023-04-16T11:44:20;5.97;;;4.00;;
76131;SDS011;64877;50.994;13.650;2023-04-16T11:46:46;4.40;;;3.30;;
76131;SDS011;64877;50.994;13.650;2023-04-16T11:49:12;5.65;;;3.30;;
76131;SDS011;64877;50.994;13.650;2023-04-16T11:51:38;5.05;;;3.63;;
76131;SDS011;64877;50.994;13.650;2023-04-16T11:54:07;4.40;;;3.28;;
76131;SDS011;64877;50.994;13.650;2023-04-16T11:56:34;4.75;;;3.38;;
76131;SDS011;64877;50.994;13.650;2023-04-16T11:59:04;8.25;;;4.32;;
76131;SDS011;64877;50.994;13.650;2023-04-16T12:01:37;6.00;;;4.15;;
76131;SDS011;64877;50.994;13.650;2023-04-16T12:04:04;5.57;;;3.97;;
76131;SDS011;64877;50.994;13.650;2023-04-16T12:06:30;5.45;;;3.95;;
76131;SDS011;64877;50.994;13.650;2023-04-16T12:08:56;5.22;;;3.40;;
76131;SDS011;64877;50.994;13.650;2023-04-16T12:11:41;5.38;;;3.40;;
76131;SDS011;64877;50.994;13.650;2023-04-16T12:14:10;5.75;;;3.20;;
76131;SDS011;64877;50.994;13.650;2023-04-16T12:16:36;5.57;;;3.70;;
76131;SDS011;64877;50.994;13.650;2023-04-16T12:19:02;5.75;;;3.70;;
76131;SDS011;64877;50.994;13.650;2023-04-16T12:21:35;3.95;;;2.97;;
76131;SDS011;64877;50.994;13.650;2023-04-16T12:24:19;3.92;;;2.65;;
76131;SDS011;64877;50.994;13.650;2023-04-16T12:26:46;4.93;;;3.30;;
76131;SDS011;64877;50.994;13.650;2023-04-16T12:29:23;4.72;;;3.40;;
76131;SDS011;64877;50.994;13.650;2023-04-16T12:31:50;5.75;;;3.13;;
76131;SDS011;64877;50.994;13.650;2023-04-16T12:34:17;5.15;;;3.38;;
76131;SDS011;64877;50.994;13.650;2023-04-16T12:36:44;4.50;;;3.20;;
76131;SDS011;64877;50.994;13.650;2023-04-16T12:39:10;8.43;;;3.60;;
76131;SDS011;64877;50.994;13.650;2023-04-16T12:41:36;7.43;;;3.50;;
76131;SDS011;64877;50.994;13.650;2023-04-16T12:44:07;5.93;;;3.75;;
76131;SDS011;64877;50.994;13.650;2023-04-16T12:46:35;5.05;;;3.50;;
76131;SDS011;64877;50.994;13.650;2023-04-16T12:49:02;5.57;;;3.67;;
76131;SDS011;64877;50.994;13.650;2023-04-16T12:51:27;5.05;;;3.45;;
76131;SDS011;64877;50.994;13.650;2023-04-16T12:53:53;4.38;;;3.00;;
76131;SDS011;64877;50.994;13.650;2023-04-16T12:56:18;5.97;;;3.20;;
76131;SDS011;64877;50.994;13.650;2023-04-16T12:58:44;5.88;;;3.30;;
76131;SDS011;64877;50.994;13.650;2023-04-16T13:01:09;5.20;;;3.50;;
76131;SDS011;64877;50.994;13.650;2023-04-16T13:03:35;7.35;;;3.75;;
76131;SDS011;64877;50.994;13.650;2023-04-16T13:06:01;5.43;;;3.50;;
76131;SDS011;64877;50.994;13.650;2023-04-16T13:08:27;4.60;;;3.25;;
76131;SDS011;64877;50.994;13.650;2023-04-16T13:10:53;5.05;;;3.30;;
76131;SDS011;64877;50.994;13.650;2023-04-16T13:13:19;4.65;;;3.10;;
76131;SDS011;64877;50.994;13.650;2023-04-16T13:15:44;4.95;;;3.70;;
76131;SDS011;64877;50.994;13.650;2023-04-16T13:18:09;4.20;;;3.17;;
76131;SDS011;64877;50.994;13.650;2023-04-16T13:20:35;6.05;;;4.22;;
76131;SDS011;64877;50.994;13.650;2023-04-16T13:23:00;6.28;;;3.47;;
76131;SDS011;64877;50.994;13.650;2023-04-16T13:25:29;4.55;;;3.50;;
76131;SDS011;64877;50.994;13.650;2023-04-16T13:27:55;4.82;;;3.13;;
76131;SDS011;64877;50.994;13.650;2023-04-16T13:30:20;4.57;;;3.22;;
76131;SDS011;64877;50.994;13.650;2023-04-16T13:32:45;5.28;;;3.15;;
76131;SDS011;64877;50.994;13.650;2023-04-16T13:35:11;4.90;;;3.10;;
76131;SDS011;64877;50.994;13.650;2023-04-16T13:37:36;5.07;;;3.40;;
76131;SDS011;64877;50.994;13.650;2023-04-16T13:40:02;5.38;;;3.55;;
76131;SDS011;64877;50.994;13.650;2023-04-16T13:42:27;5.35;;;3.67;;
76131;SDS011;64877;50.994;13.650;2023-04-16T13:44:53;5.15;;;3.50;;
76131;SDS011;64877;50.994;13.650;2023-04-16T13:47:19;5.35;;;3.45;;
76131;SDS011;64877;50.994;13.650;2023-04-16T13:49:44;4.88;;;3.30;;
76131;SDS011;64877;50.994;13.650;2023-04-16T13:52:12;5.20;;;3.05;;
76131;SDS011;64877;50.994;13.650;2023-04-16T13:54:38;5.90;;;3.33;;
76131;SDS011;64877;50.994;13.650;2023-04-16T13:57:04;5.25;;;3.45;;
76131;SDS011;64877;50.994;13.650;2023-04-16T13:59:30;6.75;;;4.07;;
76131;SDS011;64877;50.994;13.650;2023-04-16T14:01:55;6.07;;;4.63;;
76131;SDS011;64877;50.994;13.650;2023-04-16T14:04:21;6.32;;;4.50;;
76131;SDS011;64877;50.994;13.650;2023-04-16T14:06:48;6.90;;;4.35;;
76131;SDS011;64877;50.994;13.650;2023-04-16T14:09:14;5.95;;;4.60;;
76131;SDS011;64877;50.994;13.650;2023-04-16T14:11:40;6.45;;;4.63;;
76131;SDS011;64877;50.994;13.650;2023-04-16T14:14:05;5.82;;;4.40;;
76131;SDS011;64877;50.994;13.650;2023-04-16T14:16:30;5.75;;;4.28;;
76131;SDS011;64877;50.994;13.650;2023-04-16T14:18:56;5.95;;;4.20;;
76131;SDS011;64877;50.994;13.650;2023-04-16T14:21:21;9.80;;;4.38;;
76131;SDS011;64877;50.994;13.650;2023-04-16T14:23:47;7.05;;;4.93;;
76131;SDS011;64877;50.994;13.650;2023-04-16T14:26:12;6.38;;;4.63;;
76131;SDS011;64877;50.994;13.650;2023-04-16T14:28:37;7.68;;;4.75;;
76131;SDS011;64877;50.994;13.650;2023-04-16T14:31:04;6.35;;;3.95;;
76131;SDS011;64877;50.994;13.650;2023-04-16T14:33:30;5.40;;;4.20;;